createdAt,value
2023-01-23T00:00:01.009Z,101990.50
2023-01-23T00:01:05.877Z,101990.50
2023-01-23T00:02:09.713Z,101995.78
2023-01-23T00:03:12.112Z,101996.66
2023-01-23T00:04:14.557Z,101987.63
2023-01-23T00:05:16.807Z,101988.63
2023-01-23T00:06:19.045Z,101993.06
2023-01-23T00:07:21.250Z,101999.38
2023-01-23T00:08:23.472Z,101991.22
2023-01-23T00:09:25.694Z,101993.06
2023-01-23T00:10:27.889Z,101994.78
2023-01-23T00:11:30.920Z,101997.66
2023-01-23T00:12:36.095Z,101996.78
2023-01-23T00:13:38.597Z,102002.25
2023-01-23T00:14:40.786Z,101996.78
2023-01-23T00:15:43.146Z,102006.69
2023-01-23T00:16:45.440Z,102003.13
2023-01-23T00:17:48.529Z,101999.69
2023-01-23T00:18:51.990Z,101999.53
2023-01-23T00:19:55.237Z,101989.66
2023-01-23T00:20:58.555Z,102001.41
2023-01-23T00:22:01.183Z,102002.25
2023-01-23T00:23:03.510Z,102007.69
2023-01-23T00:24:06.215Z,102000.56
2023-01-23T00:25:08.615Z,102001.56
2023-01-23T00:26:15.797Z,102005.13
2023-01-23T00:27:20.003Z,102007.00
2023-01-23T00:28:22.171Z,102008.84
2023-01-23T00:29:24.314Z,102011.56
2023-01-23T00:30:26.579Z,102001.56
2023-01-23T00:31:37.585Z,102008.00
2023-01-23T00:32:40.223Z,102004.13
2023-01-23T00:33:43.916Z,102004.28
2023-01-23T00:34:47.036Z,102011.44
2023-01-23T00:35:55.324Z,102007.84
2023-01-23T00:36:58.444Z,102008.84
2023-01-23T00:38:00.753Z,102000.69
2023-01-23T00:39:04.950Z,102008.00
2023-01-23T00:40:08.128Z,101999.84
2023-01-23T00:41:10.537Z,102008.84
2023-01-23T00:42:12.812Z,102010.72
2023-01-23T00:43:15.046Z,102008.16
2023-01-23T00:44:17.670Z,102013.44
2023-01-23T00:45:19.900Z,102005.44
2023-01-23T00:46:23.141Z,102015.47
2023-01-23T00:47:25.528Z,102011.06
2023-01-23T00:48:28.003Z,102017.34
2023-01-23T00:49:30.634Z,102010.19
2023-01-23T00:50:34.397Z,102014.78
2023-01-23T00:51:36.747Z,102006.59
2023-01-23T00:52:38.932Z,102004.72
2023-01-23T00:53:41.188Z,102013.78
2023-01-23T00:54:43.390Z,102013.78
2023-01-23T00:55:45.783Z,102015.63
2023-01-23T00:56:48.153Z,102019.22
2023-01-23T00:57:50.589Z,102021.22
2023-01-23T00:58:52.955Z,102023.94
2023-01-23T00:59:55.222Z,102019.34
2023-01-23T01:00:57.662Z,102019.34
2023-01-23T01:02:00.229Z,102018.50
2023-01-23T01:03:02.535Z,102021.22
2023-01-23T01:04:05.045Z,102019.34
2023-01-23T01:05:07.495Z,102028.38
2023-01-23T01:06:10.379Z,102027.38
2023-01-23T01:07:12.591Z,102026.66
2023-01-23T01:08:15.546Z,102032.09
2023-01-23T01:09:17.724Z,102026.66
2023-01-23T01:10:20.353Z,102033.81
2023-01-23T01:11:23.083Z,102030.22
2023-01-23T01:12:25.259Z,102029.38
2023-01-23T01:13:28.511Z,102034.66
2023-01-23T01:14:33.382Z,102032.94
2023-01-23T01:15:36.051Z,102038.38
2023-01-23T01:16:38.565Z,102041.97
2023-01-23T01:17:42.310Z,102033.97
2023-01-23T01:18:44.742Z,102038.38
2023-01-23T01:19:46.974Z,102035.81
2023-01-23T01:20:49.879Z,102042.16
2023-01-23T01:21:52.204Z,102035.81
2023-01-23T01:23:00.644Z,102039.44
2023-01-23T01:24:02.939Z,102036.69
2023-01-23T01:25:05.709Z,102040.28
2023-01-23T01:26:08.696Z,102034.81
2023-01-23T01:27:11.018Z,102044.88
2023-01-23T01:28:16.039Z,102041.28
2023-01-23T01:29:18.261Z,102044.00
2023-01-23T01:30:20.691Z,102056.75
2023-01-23T01:31:23.723Z,102044.16
2023-01-23T01:32:25.961Z,102049.44
2023-01-23T01:33:28.493Z,102044.88
2023-01-23T01:34:31.711Z,102044.00
2023-01-23T01:35:34.401Z,102051.16
2023-01-23T01:36:36.579Z,102048.44
2023-01-23T01:37:41.981Z,102053.88
2023-01-23T01:38:44.784Z,102050.16
2023-01-23T01:39:47.025Z,102050.31
2023-01-23T01:40:49.664Z,102061.19
2023-01-23T01:41:51.952Z,102063.03
2023-01-23T01:43:00.170Z,102058.59
2023-01-23T01:44:04.596Z,102063.03
2023-01-23T01:45:07.708Z,102065.75
2023-01-23T01:46:17.982Z,102065.75
2023-01-23T01:47:21.760Z,102068.47
2023-01-23T01:48:46.139Z,102064.03
2023-01-23T01:49:50.034Z,102062.19
2023-01-23T01:50:54.039Z,102067.63
2023-01-23T01:52:02.971Z,102065.94
2023-01-23T01:53:05.869Z,102068.66
2023-01-23T01:54:28.512Z,102066.75
2023-01-23T01:55:31.782Z,102065.06
2023-01-23T01:56:41.366Z,102069.50
2023-01-23T01:57:45.739Z,102067.78
2023-01-23T01:58:52.248Z,102076.81
2023-01-23T02:00:00.477Z,102074.09
2023-01-23T02:01:02.809Z,102073.25
2023-01-23T02:02:11.668Z,102080.38
2023-01-23T02:03:15.441Z,102082.25
2023-01-23T02:04:20.291Z,102086.84
2023-01-23T02:05:26.463Z,102082.41
2023-01-23T02:06:30.709Z,102084.97
2023-01-23T02:07:41.071Z,102084.13
2023-01-23T02:08:51.474Z,102089.56
2023-01-23T02:09:54.453Z,102087.69
2023-01-23T02:10:57.233Z,102086.84
2023-01-23T02:12:01.781Z,102089.56
2023-01-23T02:13:21.228Z,102088.53
2023-01-23T02:14:25.904Z,102090.56
2023-01-23T02:15:28.184Z,102086.84
2023-01-23T02:16:40.382Z,102088.53
2023-01-23T02:17:44.301Z,102091.25
2023-01-23T02:18:49.768Z,102085.97
2023-01-23T02:20:18.947Z,102093.97
2023-01-23T02:21:25.377Z,102102.13
2023-01-23T02:22:45.701Z,102097.00
2023-01-23T02:23:56.583Z,102098.72
2023-01-23T02:25:27.903Z,102098.72
2023-01-23T02:26:38.779Z,102109.63
2023-01-23T02:27:41.008Z,102102.47
2023-01-23T02:28:46.617Z,102103.31
2023-01-23T02:29:56.344Z,102101.63
2023-01-23T02:31:01.672Z,102094.28
2023-01-23T02:32:05.995Z,102094.28
2023-01-23T02:33:25.091Z,102095.13
2023-01-23T02:34:30.175Z,102096.00
2023-01-23T02:35:39.127Z,102098.72
2023-01-23T02:36:48.295Z,102096.84
2023-01-23T02:37:55.388Z,102108.63
2023-01-23T02:39:09.408Z,102093.13
2023-01-23T02:40:13.378Z,102101.47
2023-01-23T02:41:18.936Z,102091.56
2023-01-23T02:42:22.916Z,102108.75
2023-01-23T02:43:35.297Z,102102.31
2023-01-23T02:44:41.229Z,102103.19
2023-01-23T02:45:44.337Z,102103.19
2023-01-23T02:46:48.247Z,102100.56
2023-01-23T02:47:50.391Z,102102.31
2023-01-23T02:48:52.979Z,102108.63
2023-01-23T02:49:55.174Z,102102.31
2023-01-23T02:50:57.725Z,102114.75
2023-01-23T02:52:00.430Z,102111.19
2023-01-23T02:53:02.763Z,102106.59
2023-01-23T02:54:05.247Z,102105.72
2023-01-23T02:55:08.780Z,102105.72
2023-01-23T02:56:11.162Z,102112.91
2023-01-23T02:57:14.534Z,102108.44
2023-01-23T02:58:35.484Z,102113.75
2023-01-23T02:59:56.133Z,102116.47
2023-01-23T03:00:59.378Z,102118.19
2023-01-23T03:02:05.571Z,102115.47
2023-01-23T03:03:09.367Z,102111.88
2023-01-23T03:04:11.548Z,102112.75
2023-01-23T03:05:13.980Z,102115.47
2023-01-23T03:06:16.177Z,102112.75
2023-01-23T03:07:18.499Z,102108.28
2023-01-23T03:08:20.752Z,102108.13
2023-01-23T03:09:23.324Z,102107.28
2023-01-23T03:10:25.541Z,102112.75
2023-01-23T03:11:28.970Z,102102.69
2023-01-23T03:12:31.700Z,102107.13
2023-01-23T03:13:33.910Z,102087.25
2023-01-23T03:14:36.324Z,102088.09
2023-01-23T03:15:39.358Z,102093.53
2023-01-23T03:16:43.137Z,102087.25
2023-01-23T03:17:48.141Z,102091.81
2023-01-23T03:18:54.832Z,102090.81
2023-01-23T03:19:58.314Z,102084.53
2023-01-23T03:21:05.431Z,102094.38
2023-01-23T03:22:07.752Z,102088.94
2023-01-23T03:23:10.296Z,102087.25
2023-01-23T03:24:14.066Z,102093.38
2023-01-23T03:25:17.299Z,102085.38
2023-01-23T03:26:19.660Z,102084.53
2023-01-23T03:27:23.726Z,102081.63
2023-01-23T03:28:48.211Z,102078.91
2023-01-23T03:30:09.584Z,102078.91
2023-01-23T03:31:13.074Z,102085.22
2023-01-23T03:32:16.215Z,102083.50
2023-01-23T03:33:19.809Z,102078.91
2023-01-23T03:34:22.968Z,102083.50
2023-01-23T03:35:25.253Z,102085.22
2023-01-23T03:36:29.911Z,102076.19
2023-01-23T03:37:34.030Z,102085.38
2023-01-23T03:38:59.998Z,102084.38
2023-01-23T03:40:22.133Z,102085.22
2023-01-23T03:41:27.216Z,102087.09
2023-01-23T03:42:34.890Z,102087.09
2023-01-23T03:43:38.683Z,102084.53
2023-01-23T03:44:41.321Z,102093.53
2023-01-23T03:45:45.853Z,102090.81
2023-01-23T03:46:53.180Z,102095.41
2023-01-23T03:47:55.395Z,102103.56
2023-01-23T03:48:57.586Z,102104.41
2023-01-23T03:50:02.169Z,102111.75
2023-01-23T03:51:09.986Z,102110.00
2023-01-23T03:52:12.751Z,102111.75
2023-01-23T03:53:15.034Z,102115.31
2023-01-23T03:54:17.278Z,102113.41
2023-01-23T03:55:20.319Z,102113.41
2023-01-23T03:56:22.825Z,102116.16
2023-01-23T03:57:25.796Z,102116.16
2023-01-23T03:58:39.942Z,102116.16
2023-01-23T03:59:42.162Z,102118.88
2023-01-23T04:00:44.837Z,102117.03
2023-01-23T04:01:48.164Z,102126.03
2023-01-23T04:02:50.610Z,102123.31
2023-01-23T04:03:53.207Z,102117.88
2023-01-23T04:04:55.458Z,102119.59
2023-01-23T04:06:02.209Z,102116.03
2023-01-23T04:07:06.431Z,102121.31
2023-01-23T04:08:09.790Z,102119.59
2023-01-23T04:09:13.072Z,102123.16
2023-01-23T04:10:16.281Z,102134.91
2023-01-23T04:11:23.170Z,102130.31
2023-01-23T04:12:25.442Z,102126.03
2023-01-23T04:13:27.732Z,102128.59
2023-01-23T04:14:37.660Z,102122.31
2023-01-23T04:15:40.045Z,102125.03
2023-01-23T04:16:42.816Z,102130.31
2023-01-23T04:17:45.177Z,102135.75
2023-01-23T04:18:49.598Z,102128.47
2023-01-23T04:19:51.872Z,102138.47
2023-01-23T04:20:54.689Z,102134.91
2023-01-23T04:21:56.927Z,102133.91
2023-01-23T04:22:59.150Z,102138.47
2023-01-23T04:24:03.253Z,102144.78
2023-01-23T04:25:06.800Z,102141.19
2023-01-23T04:26:09.046Z,102143.91
2023-01-23T04:27:11.420Z,102141.19
2023-01-23T04:28:13.830Z,102144.78
2023-01-23T04:29:17.176Z,102145.63
2023-01-23T04:30:20.254Z,102149.19
2023-01-23T04:31:25.244Z,102147.34
2023-01-23T04:32:28.166Z,102146.47
2023-01-23T04:33:30.404Z,102147.34
2023-01-23T04:34:33.973Z,102149.19
2023-01-23T04:35:36.686Z,102150.06
2023-01-23T04:36:39.045Z,102150.75
2023-01-23T04:37:41.232Z,102149.19
2023-01-23T04:38:43.930Z,102147.19
2023-01-23T04:39:55.175Z,102147.19
2023-01-23T04:40:58.726Z,102153.66
2023-01-23T04:42:01.104Z,102154.50
2023-01-23T04:43:26.106Z,102150.91
2023-01-23T04:44:29.522Z,102157.38
2023-01-23T04:45:56.382Z,102154.63
2023-01-23T04:47:21.420Z,102151.06
2023-01-23T04:48:28.518Z,102147.50
2023-01-23T04:49:30.707Z,102158.41
2023-01-23T04:50:33.905Z,102152.97
2023-01-23T04:51:37.901Z,102163.69
2023-01-23T04:52:40.089Z,102150.22
2023-01-23T04:53:42.250Z,102152.97
2023-01-23T04:54:44.524Z,102161.13
2023-01-23T04:55:49.349Z,102154.97
2023-01-23T04:56:52.492Z,102168.41
2023-01-23T04:57:56.166Z,102165.69
2023-01-23T04:59:00.757Z,102172.13
2023-01-23T05:00:03.536Z,102175.56
2023-01-23T05:01:08.437Z,102170.28
2023-01-23T05:02:11.892Z,102169.28
2023-01-23T05:03:18.050Z,102168.41
2023-01-23T05:04:22.282Z,102160.25
2023-01-23T05:05:25.459Z,102158.41
2023-01-23T05:06:31.969Z,102158.53
2023-01-23T05:07:34.878Z,102153.97
2023-01-23T05:08:52.273Z,102158.41
2023-01-23T05:10:18.427Z,102162.97
2023-01-23T05:11:20.829Z,102167.56
2023-01-23T05:12:23.032Z,102166.56
2023-01-23T05:13:25.212Z,102162.97
2023-01-23T05:14:28.365Z,102165.69
2023-01-23T05:15:31.000Z,102167.56
2023-01-23T05:16:33.300Z,102165.69
2023-01-23T05:18:02.254Z,102171.13
2023-01-23T05:19:06.513Z,102163.84
2023-01-23T05:20:11.846Z,102163.84
2023-01-23T05:21:14.822Z,102163.84
2023-01-23T05:22:18.140Z,102164.84
2023-01-23T05:23:20.412Z,102160.41
2023-01-23T05:24:25.796Z,102170.28
2023-01-23T05:25:30.512Z,102161.25
2023-01-23T05:26:35.169Z,102166.56
2023-01-23T05:27:37.459Z,102166.56
2023-01-23T05:28:39.639Z,102162.13
2023-01-23T05:29:44.575Z,102170.13
2023-01-23T05:30:51.757Z,102159.25
2023-01-23T05:32:06.712Z,102162.97
2023-01-23T05:33:14.564Z,102162.13
2023-01-23T05:34:18.015Z,102166.69
2023-01-23T05:35:22.868Z,102163.97
2023-01-23T05:36:25.161Z,102165.69
2023-01-23T05:37:27.635Z,102168.25
2023-01-23T05:38:34.658Z,102169.41
2023-01-23T05:39:40.078Z,102174.00
2023-01-23T05:40:43.102Z,102172.13
2023-01-23T05:41:51.503Z,102174.84
2023-01-23T05:43:15.314Z,102173.00
2023-01-23T05:44:32.924Z,102175.72
2023-01-23T05:45:41.470Z,102173.84
2023-01-23T05:46:50.864Z,102179.28
2023-01-23T05:47:55.918Z,102183.91
2023-01-23T05:48:58.304Z,102180.28
2023-01-23T05:50:01.342Z,102178.44
2023-01-23T05:51:09.816Z,102181.16
2023-01-23T05:52:13.031Z,102183.03
2023-01-23T05:53:15.232Z,102185.75
2023-01-23T05:54:17.633Z,102187.63
2023-01-23T05:55:21.353Z,102184.91
2023-01-23T05:56:28.043Z,102183.91
2023-01-23T05:57:50.207Z,102178.44
2023-01-23T05:59:27.993Z,102184.91
2023-01-23T06:00:38.463Z,102188.63
2023-01-23T06:02:16.202Z,102188.63
2023-01-23T06:03:46.453Z,102199.34
2023-01-23T06:05:24.124Z,102199.50
2023-01-23T06:06:37.003Z,102204.94
2023-01-23T06:07:39.469Z,102206.81
2023-01-23T06:08:44.042Z,102208.66
2023-01-23T06:09:47.244Z,102213.25
2023-01-23T06:10:50.961Z,102218.72
2023-01-23T06:11:54.470Z,102204.25
2023-01-23T06:12:58.940Z,102212.44
2023-01-23T06:14:01.152Z,102203.38
2023-01-23T06:15:03.643Z,102209.69
2023-01-23T06:16:08.509Z,102195.22
2023-01-23T06:17:13.310Z,102205.09
2023-01-23T06:18:15.556Z,102200.50
2023-01-23T06:19:17.745Z,102206.81
2023-01-23T06:20:20.181Z,102202.22
2023-01-23T06:21:22.573Z,102201.38
2023-01-23T06:22:25.031Z,102203.22
2023-01-23T06:23:38.294Z,102204.94
2023-01-23T06:24:40.681Z,102206.81
2023-01-23T06:25:42.943Z,102205.81
2023-01-23T06:26:49.738Z,102207.66
2023-01-23T06:29:10.512Z,102207.50
2023-01-23T06:30:13.951Z,102202.94
2023-01-23T06:31:18.133Z,102212.84
2023-01-23T06:32:29.443Z,102211.09
2023-01-23T06:33:32.502Z,102210.22
2023-01-23T06:34:37.318Z,102208.38
2023-01-23T06:35:40.883Z,102216.56
2023-01-23T06:36:46.250Z,102219.28
2023-01-23T06:37:48.862Z,102214.50
2023-01-23T06:38:52.745Z,102212.84
2023-01-23T06:40:00.191Z,102215.56
2023-01-23T06:41:02.516Z,102219.97
2023-01-23T06:42:10.440Z,102213.66
2023-01-23T06:43:17.737Z,102225.41
2023-01-23T06:44:20.195Z,102225.41
2023-01-23T06:45:22.730Z,102220.84
2023-01-23T06:46:26.027Z,102227.13
2023-01-23T06:47:29.441Z,102232.56
2023-01-23T06:48:35.957Z,102230.84
2023-01-23T06:49:38.506Z,102230.72
2023-01-23T06:50:42.452Z,102235.13
2023-01-23T06:51:44.733Z,102224.41
2023-01-23T06:52:47.895Z,102230.72
2023-01-23T06:53:50.222Z,102238.72
2023-01-23T06:54:52.472Z,102234.28
2023-01-23T06:55:59.113Z,102236.84
2023-01-23T06:57:04.506Z,102238.72
2023-01-23T06:58:07.579Z,102237.84
2023-01-23T06:59:09.865Z,102242.28
2023-01-23T07:00:12.955Z,102245.03
2023-01-23T07:01:17.828Z,102244.03
2023-01-23T07:02:49.627Z,102243.31
2023-01-23T07:03:53.093Z,102241.44
2023-01-23T07:04:55.412Z,102249.63
2023-01-23T07:06:02.319Z,102250.47
2023-01-23T07:07:05.146Z,102255.06
2023-01-23T07:08:08.875Z,102253.19
2023-01-23T07:09:11.731Z,102255.91
2023-01-23T07:10:14.476Z,102257.78
2023-01-23T07:11:16.915Z,102261.34
2023-01-23T07:12:19.193Z,102260.50
2023-01-23T07:13:21.933Z,102257.78
2023-01-23T07:14:27.307Z,102260.50
2023-01-23T07:15:29.978Z,102255.06
2023-01-23T07:16:33.014Z,102260.50
2023-01-23T07:17:35.527Z,102263.91
2023-01-23T07:18:37.838Z,102270.34
2023-01-23T07:19:42.946Z,102274.81
2023-01-23T07:20:50.084Z,102271.25
2023-01-23T07:21:52.404Z,102276.69
2023-01-23T07:22:56.070Z,102275.69
2023-01-23T07:23:58.335Z,102281.13
2023-01-23T07:25:00.493Z,102282.97
2023-01-23T07:26:07.482Z,102284.69
2023-01-23T07:27:09.741Z,102293.69
2023-01-23T07:28:12.174Z,102286.41
2023-01-23T07:29:14.533Z,102290.13
2023-01-23T07:30:17.858Z,102297.31
2023-01-23T07:31:20.360Z,102294.56
2023-01-23T07:32:22.641Z,102303.59
2023-01-23T07:33:25.035Z,102295.41
2023-01-23T07:34:27.788Z,102300.88
2023-01-23T07:35:33.001Z,102299.88
2023-01-23T07:36:35.189Z,102299.88
2023-01-23T07:37:37.412Z,102304.47
2023-01-23T07:38:39.826Z,102302.59
2023-01-23T07:39:42.069Z,102307.03
2023-01-23T07:40:45.472Z,102307.03
2023-01-23T07:41:47.728Z,102313.31
2023-01-23T07:42:50.102Z,102320.63
2023-01-23T07:43:52.430Z,102321.50
2023-01-23T07:44:54.715Z,102315.03
2023-01-23T07:46:00.347Z,102317.78
2023-01-23T07:47:02.547Z,102321.34
2023-01-23T07:48:07.830Z,102320.34
2023-01-23T07:49:10.165Z,102317.59
2023-01-23T07:50:13.302Z,102323.94
2023-01-23T07:51:15.693Z,102324.78
2023-01-23T07:52:17.947Z,102325.63
2023-01-23T07:53:20.174Z,102322.91
2023-01-23T07:54:22.390Z,102322.78
2023-01-23T07:55:27.688Z,102325.50
2023-01-23T07:56:29.908Z,102328.22
2023-01-23T07:57:34.077Z,102328.06
2023-01-23T07:58:36.375Z,102329.91
2023-01-23T07:59:38.550Z,102328.91
2023-01-23T08:00:42.135Z,102331.63
2023-01-23T08:01:44.519Z,102324.34
2023-01-23T08:02:46.728Z,102330.78
2023-01-23T08:03:48.938Z,102336.06
2023-01-23T08:04:51.242Z,102326.03
2023-01-23T08:05:53.415Z,102329.63
2023-01-23T08:06:55.712Z,102336.94
2023-01-23T08:08:12.062Z,102339.38
2023-01-23T08:09:14.707Z,102331.34
2023-01-23T08:10:17.295Z,102332.19
2023-01-23T08:11:19.666Z,102331.19
2023-01-23T08:12:21.872Z,102328.47
2023-01-23T08:13:24.144Z,102341.09
2023-01-23T08:14:29.503Z,102324.75
2023-01-23T08:15:31.726Z,102333.94
2023-01-23T08:16:34.122Z,102325.75
2023-01-23T08:17:36.649Z,102341.09
2023-01-23T08:18:38.931Z,102331.03
2023-01-23T08:19:41.172Z,102333.78
2023-01-23T08:20:43.452Z,102332.91
2023-01-23T08:21:46.421Z,102343.66
2023-01-23T08:22:48.742Z,102347.22
2023-01-23T08:23:51.113Z,102343.66
2023-01-23T08:24:56.301Z,102350.78
2023-01-23T08:26:01.000Z,102348.06
2023-01-23T08:27:03.198Z,102341.63
2023-01-23T08:28:05.379Z,102346.22
2023-01-23T08:29:11.193Z,102342.50
2023-01-23T08:30:16.085Z,102344.19
2023-01-23T08:31:18.755Z,102346.06
2023-01-23T08:32:23.764Z,102341.47
2023-01-23T08:33:25.984Z,102336.03
2023-01-23T08:34:28.331Z,102346.78
2023-01-23T08:35:30.718Z,102344.06
2023-01-23T08:36:33.068Z,102349.50
2023-01-23T08:37:37.002Z,102352.09
2023-01-23T08:38:39.493Z,102341.19
2023-01-23T08:39:41.985Z,102348.47
2023-01-23T08:40:44.228Z,102346.63
2023-01-23T08:41:46.719Z,102342.03
2023-01-23T08:42:48.871Z,102347.47
2023-01-23T08:43:51.507Z,102347.31
2023-01-23T08:44:54.181Z,102341.19
2023-01-23T08:45:58.787Z,102348.19
2023-01-23T08:47:03.331Z,102339.16
2023-01-23T08:48:08.699Z,102341.03
2023-01-23T08:49:11.440Z,102337.47
2023-01-23T08:50:13.895Z,102340.19
2023-01-23T08:51:16.350Z,102344.59
2023-01-23T08:52:18.755Z,102348.19
2023-01-23T08:53:21.075Z,102349.94
2023-01-23T08:54:23.331Z,102341.75
2023-01-23T08:55:25.545Z,102349.94
2023-01-23T08:56:27.717Z,102342.59
2023-01-23T08:57:29.936Z,102352.50
2023-01-23T08:58:32.461Z,102347.03
2023-01-23T08:59:34.701Z,102356.06
2023-01-23T09:00:36.881Z,102356.06
2023-01-23T09:01:39.263Z,102356.06
2023-01-23T09:02:41.507Z,102352.34
2023-01-23T09:03:44.132Z,102350.47
2023-01-23T09:04:46.843Z,102348.78
2023-01-23T09:05:49.034Z,102357.63
2023-01-23T09:06:51.204Z,102355.06
2023-01-23T09:07:53.539Z,102350.47
2023-01-23T09:08:55.750Z,102356.94
2023-01-23T09:09:57.913Z,102359.50
2023-01-23T09:11:02.264Z,102353.19
2023-01-23T09:12:04.695Z,102363.06
2023-01-23T09:13:09.231Z,102356.78
2023-01-23T09:14:11.551Z,102351.34
2023-01-23T09:15:13.808Z,102350.47
2023-01-23T09:16:16.931Z,102357.47
2023-01-23T09:17:19.163Z,102352.19
2023-01-23T09:18:22.979Z,102353.06
2023-01-23T09:19:27.465Z,102356.63
2023-01-23T09:20:29.678Z,102356.63
2023-01-23T09:21:31.911Z,102356.63
2023-01-23T09:22:34.105Z,102356.47
2023-01-23T09:23:36.536Z,102354.63
2023-01-23T09:24:38.707Z,102360.91
2023-01-23T09:25:41.168Z,102370.81
2023-01-23T09:26:43.777Z,102362.63
2023-01-23T09:27:45.972Z,102374.22
2023-01-23T09:28:48.175Z,102380.53
2023-01-23T09:29:50.995Z,102374.22
2023-01-23T09:30:53.247Z,102377.81
2023-01-23T09:31:58.745Z,102383.13
2023-01-23T09:33:03.897Z,102375.78
2023-01-23T09:34:07.991Z,102377.66
2023-01-23T09:35:10.753Z,102378.50
2023-01-23T09:36:13.773Z,102377.50
2023-01-23T09:37:17.014Z,102375.63
2023-01-23T09:38:19.725Z,102377.50
2023-01-23T09:39:22.176Z,102377.34
2023-01-23T09:40:25.898Z,102376.50
2023-01-23T09:41:29.302Z,102376.50
2023-01-23T09:42:36.633Z,102376.50
2023-01-23T09:44:11.706Z,102372.91
2023-01-23T09:45:20.277Z,102375.50
2023-01-23T09:46:27.846Z,102362.72
2023-01-23T09:47:38.655Z,102362.88
2023-01-23T09:49:08.239Z,102366.47
2023-01-23T09:50:30.992Z,102370.75
2023-01-23T09:52:04.079Z,102372.63
2023-01-23T09:53:14.290Z,102371.63
2023-01-23T09:54:29.966Z,102373.47
2023-01-23T09:55:49.313Z,102359.00
2023-01-23T09:56:52.628Z,102370.75
2023-01-23T09:57:57.790Z,102366.19
2023-01-23T09:59:11.700Z,102364.28
2023-01-23T10:00:20.862Z,102375.19
2023-01-23T10:01:35.617Z,102367.03
2023-01-23T10:02:44.572Z,102367.03
2023-01-23T10:03:46.887Z,102361.56
2023-01-23T10:04:51.540Z,102365.16
2023-01-23T10:06:17.796Z,102369.59
2023-01-23T10:07:35.386Z,102359.69
2023-01-23T10:09:08.364Z,102355.13
2023-01-23T10:10:20.805Z,102350.53
2023-01-23T10:11:38.638Z,102356.84
2023-01-23T10:13:02.954Z,102352.25
2023-01-23T10:14:47.325Z,102347.63
2023-01-23T10:15:49.478Z,102340.50
2023-01-23T10:17:07.174Z,102344.91
2023-01-23T10:18:12.301Z,102343.22
2023-01-23T10:19:52.070Z,102342.19
2023-01-23T10:23:10.922Z,102343.91
2023-01-23T10:24:40.034Z,102345.63
2023-01-23T10:25:43.111Z,102342.91
2023-01-23T10:26:46.760Z,102342.91
2023-01-23T10:27:51.091Z,102346.47
2023-01-23T10:29:19.033Z,102344.63
2023-01-23T10:30:28.855Z,102347.34
2023-01-23T10:31:38.779Z,102346.34
2023-01-23T10:32:51.167Z,102347.34
2023-01-23T10:34:05.868Z,102352.66
2023-01-23T10:35:40.953Z,102356.22
2023-01-23T10:36:56.863Z,102353.38
2023-01-23T10:38:29.785Z,102356.94
2023-01-23T10:39:44.388Z,102349.59
2023-01-23T10:41:07.235Z,102349.59
2023-01-23T10:42:21.250Z,102348.59
2023-01-23T10:43:26.989Z,102346.75
2023-01-23T10:44:29.673Z,102343.00
2023-01-23T10:45:32.411Z,102351.16
2023-01-23T10:46:42.803Z,102356.63
2023-01-23T10:47:55.249Z,102356.34
2023-01-23T10:49:00.205Z,102351.03
2023-01-23T10:50:04.784Z,102350.00
2023-01-23T10:51:28.561Z,102342.72
2023-01-23T10:52:43.003Z,102348.84
2023-01-23T10:53:45.175Z,102347.13
2023-01-23T10:54:53.453Z,102344.28
2023-01-23T10:55:59.105Z,102338.81
2023-01-23T10:57:18.660Z,102346.84
2023-01-23T10:58:29.908Z,102342.22
2023-01-23T10:59:50.448Z,102338.50
2023-01-23T11:00:53.387Z,102339.34
2023-01-23T11:01:59.295Z,102337.50
2023-01-23T11:03:20.408Z,102341.06
2023-01-23T11:04:26.256Z,102338.34
2023-01-23T11:05:53.117Z,102340.22
2023-01-23T11:07:23.488Z,102341.94
2023-01-23T11:08:30.485Z,102343.78
2023-01-23T11:09:35.599Z,102340.22
2023-01-23T11:10:40.716Z,102336.50
2023-01-23T11:11:43.175Z,102344.66
2023-01-23T11:12:55.764Z,102339.22
2023-01-23T11:14:16.972Z,102340.91
2023-01-23T11:15:34.314Z,102336.50
2023-01-23T11:16:37.103Z,102336.50
2023-01-23T11:17:41.909Z,102336.50
2023-01-23T11:18:56.142Z,102336.19
2023-01-23T11:19:59.939Z,102340.78
2023-01-23T11:21:02.832Z,102340.78
2023-01-23T11:22:23.151Z,102340.78
2023-01-23T11:23:25.613Z,102338.91
2023-01-23T11:24:40.766Z,102333.44
2023-01-23T11:25:53.663Z,102340.63
2023-01-23T11:27:06.397Z,102342.34
2023-01-23T11:28:23.650Z,102344.03
2023-01-23T11:29:27.932Z,102339.63
2023-01-23T11:30:36.346Z,102336.75
2023-01-23T11:33:01.923Z,102338.47
2023-01-23T11:34:21.751Z,102336.56
2023-01-23T11:35:38.070Z,102333.00
2023-01-23T11:37:21.188Z,102340.16
2023-01-23T11:38:30.904Z,102334.69
2023-01-23T11:39:36.124Z,102332.84
2023-01-23T11:40:38.351Z,102328.41
2023-01-23T11:41:40.546Z,102327.56
2023-01-23T11:42:43.551Z,102324.84
2023-01-23T11:43:45.942Z,102330.28
2023-01-23T11:44:48.380Z,102331.13
2023-01-23T11:46:13.652Z,102331.97
2023-01-23T11:47:49.237Z,102330.13
2023-01-23T11:49:08.654Z,102334.41
2023-01-23T11:50:49.985Z,102327.25
2023-01-23T11:52:17.665Z,102327.25
2023-01-23T11:53:58.206Z,102330.69
2023-01-23T11:55:35.051Z,102326.06
2023-01-23T11:56:56.375Z,102324.34
2023-01-23T11:58:28.701Z,102317.06
2023-01-23T12:00:18.945Z,102323.50
2023-01-23T12:01:40.228Z,102316.34
2023-01-23T12:03:00.776Z,102319.06
2023-01-23T12:04:36.420Z,102321.78
2023-01-23T12:08:07.999Z,102321.94
2023-01-23T12:09:20.330Z,102321.06
2023-01-23T12:11:01.542Z,102326.53
2023-01-23T12:12:23.024Z,102322.09
2023-01-23T12:13:39.446Z,102325.69
2023-01-23T12:15:03.970Z,102321.22
2023-01-23T12:16:45.311Z,102320.38
2023-01-23T12:19:30.555Z,102322.22
2023-01-23T12:20:43.599Z,102315.09
2023-01-23T12:22:07.228Z,102315.22
2023-01-23T12:23:36.466Z,102310.66
2023-01-23T12:24:55.231Z,102317.09
2023-01-23T12:26:12.163Z,102319.09
2023-01-23T12:27:39.858Z,102316.38
2023-01-23T12:29:13.851Z,102319.09
2023-01-23T12:30:54.511Z,102318.28
2023-01-23T12:32:15.931Z,102326.44
2023-01-23T12:33:40.401Z,102323.88
2023-01-23T12:35:02.353Z,102328.44
2023-01-23T12:37:05.075Z,102324.72
2023-01-23T12:38:15.595Z,102325.72
2023-01-23T12:39:35.611Z,102323.00
2023-01-23T12:40:45.708Z,102325.72
2023-01-23T12:41:52.466Z,102323.88
2023-01-23T12:43:30.975Z,102318.44
2023-01-23T12:44:38.549Z,102314.69
2023-01-23T12:45:49.370Z,102323.00
2023-01-23T12:47:10.869Z,102321.16
2023-01-23T12:48:19.835Z,102317.41
2023-01-23T12:49:40.960Z,102320.16
2023-01-23T12:51:08.848Z,102323.72
2023-01-23T12:52:35.623Z,102319.09
2023-01-23T12:53:39.835Z,102329.16
2023-01-23T12:55:04.586Z,102322.56
2023-01-23T12:56:37.760Z,102320.84
2023-01-23T12:57:52.709Z,102324.44